sensor_id;sensor_type;location;lat;lon;timestamp;pressure;altitude;pressure_sealevel;temperature;humidity
62055;BME280;48653;51.742;-1.256;2023-02-21T00:03:44;101518.25;;;7.84;58.27
62055;BME280;48653;51.742;-1.256;2023-02-21T00:06:09;101510.22;;;8.59;57.51
62055;BME280;48653;51.742;-1.256;2023-02-21T00:08:34;101510.20;;;8.60;57.16
62055;BME280;48653;51.742;-1.256;2023-02-21T00:10:59;101512.99;;;8.83;56.89
62055;BME280;48653;51.742;-1.256;2023-02-21T00:13:24;101510.02;;;9.09;56.31
62055;BME280;48653;51.742;-1.256;2023-02-21T00:15:49;101507.79;;;8.95;56.63
62055;BME280;48653;51.742;-1.256;2023-02-21T00:18:14;101507.01;;;8.66;57.85
62055;BME280;48653;51.742;-1.256;2023-02-21T00:20:39;101506.77;;;9.05;57.70
62055;BME280;48653;51.742;-1.256;2023-02-21T00:23:04;101505.65;;;8.63;57.94
62055;BME280;48653;51.742;-1.256;2023-02-21T00:25:30;101502.65;;;8.76;58.44
62055;BME280;48653;51.742;-1.256;2023-02-21T00:27:56;101501.03;;;8.52;58.67
62055;BME280;48653;51.742;-1.256;2023-02-21T00:30:20;101500.38;;;8.36;59.25
62055;BME280;48653;51.742;-1.256;2023-02-21T00:32:46;101499.39;;;8.76;58.36
62055;BME280;48653;51.742;-1.256;2023-02-21T00:35:11;101496.94;;;8.16;59.81
62055;BME280;48653;51.742;-1.256;2023-02-21T00:37:36;101499.99;;;7.95;59.99
62055;BME280;48653;51.742;-1.256;2023-02-21T00:40:01;101503.18;;;8.53;59.28
62055;BME280;48653;51.742;-1.256;2023-02-21T00:42:26;101498.69;;;7.37;61.83
62055;BME280;48653;51.742;-1.256;2023-02-21T00:44:51;101491.89;;;7.73;61.31
62055;BME280;48653;51.742;-1.256;2023-02-21T00:47:17;101495.04;;;8.11;60.30
62055;BME280;48653;51.742;-1.256;2023-02-21T00:49:42;101488.11;;;8.44;59.58
62055;BME280;48653;51.742;-1.256;2023-02-21T00:52:07;101486.77;;;9.02;57.27
62055;BME280;48653;51.742;-1.256;2023-02-21T00:54:33;101486.80;;;9.10;56.95
62055;BME280;48653;51.742;-1.256;2023-02-21T00:56:58;101488.99;;;9.33;56.28
62055;BME280;48653;51.742;-1.256;2023-02-21T00:59:24;101488.79;;;8.94;57.12
62055;BME280;48653;51.742;-1.256;2023-02-21T01:01:49;101482.58;;;9.48;57.12
62055;BME280;48653;51.742;-1.256;2023-02-21T01:04:14;101482.04;;;9.39;56.70
62055;BME280;48653;51.742;-1.256;2023-02-21T01:06:39;101476.34;;;9.28;56.33
62055;BME280;48653;51.742;-1.256;2023-02-21T01:09:05;101475.62;;;9.30;55.84
62055;BME280;48653;51.742;-1.256;2023-02-21T01:11:31;101474.42;;;8.33;59.66
62055;BME280;48653;51.742;-1.256;2023-02-21T01:13:56;101468.81;;;8.71;58.42
62055;BME280;48653;51.742;-1.256;2023-02-21T01:16:21;101465.97;;;8.41;59.21
62055;BME280;48653;51.742;-1.256;2023-02-21T01:18:46;101461.18;;;8.59;58.22
62055;BME280;48653;51.742;-1.256;2023-02-21T01:21:12;101464.94;;;7.57;61.88
62055;BME280;48653;51.742;-1.256;2023-02-21T01:23:37;101460.20;;;8.39;60.10
62055;BME280;48653;51.742;-1.256;2023-02-21T01:26:02;101458.67;;;7.95;60.87
62055;BME280;48653;51.742;-1.256;2023-02-21T01:28:28;101454.42;;;8.98;58.51
62055;BME280;48653;51.742;-1.256;2023-02-21T01:30:52;101457.63;;;8.31;58.84
62055;BME280;48653;51.742;-1.256;2023-02-21T01:33:18;101453.91;;;8.96;58.22
62055;BME280;48653;51.742;-1.256;2023-02-21T01:35:43;101454.56;;;8.48;59.70
62055;BME280;48653;51.742;-1.256;2023-02-21T01:38:08;101453.76;;;8.35;60.05
62055;BME280;48653;51.742;-1.256;2023-02-21T01:40:33;101450.82;;;8.85;58.76
62055;BME280;48653;51.742;-1.256;2023-02-21T01:42:58;101457.02;;;8.62;59.10
62055;BME280;48653;51.742;-1.256;2023-02-21T01:45:38;101452.57;;;8.30;59.55
62055;BME280;48653;51.742;-1.256;2023-02-21T01:47:49;101447.39;;;7.87;60.43
62055;BME280;48653;51.742;-1.256;2023-02-21T01:50:18;101444.38;;;8.67;58.38
62055;BME280;48653;51.742;-1.256;2023-02-21T01:52:40;101442.14;;;8.82;58.65
62055;BME280;48653;51.742;-1.256;2023-02-21T01:55:06;101438.69;;;8.38;60.05
62055;BME280;48653;51.742;-1.256;2023-02-21T01:57:30;101436.46;;;8.19;59.81
62055;BME280;48653;51.742;-1.256;2023-02-21T01:59:57;101435.55;;;8.42;60.05
62055;BME280;48653;51.742;-1.256;2023-02-21T02:02:25;101432.36;;;8.10;60.70
62055;BME280;48653;51.742;-1.256;2023-02-21T02:04:47;101429.44;;;8.09;61.02
62055;BME280;48653;51.742;-1.256;2023-02-21T02:07:11;101426.92;;;8.28;60.51
62055;BME280;48653;51.742;-1.256;2023-02-21T02:09:36;101423.48;;;8.99;58.92
62055;BME280;48653;51.742;-1.256;2023-02-21T02:12:21;101423.55;;;8.49;59.51
62055;BME280;48653;51.742;-1.256;2023-02-21T02:16:58;101414.85;;;8.38;59.10
62055;BME280;48653;51.742;-1.256;2023-02-21T02:19:40;101412.37;;;8.84;58.34
62055;BME280;48653;51.742;-1.256;2023-02-21T02:21:59;101409.07;;;8.84;58.62
62055;BME280;48653;51.742;-1.256;2023-02-21T02:24:25;101405.39;;;8.97;57.80
62055;BME280;48653;51.742;-1.256;2023-02-21T02:29:10;101397.74;;;8.71;58.35
62055;BME280;48653;51.742;-1.256;2023-02-21T02:31:39;101398.93;;;8.73;58.10
62055;BME280;48653;51.742;-1.256;2023-02-21T02:34:05;101395.98;;;8.33;58.67
62055;BME280;48653;51.742;-1.256;2023-02-21T02:36:14;101392.21;;;9.11;56.40
62055;BME280;48653;51.742;-1.256;2023-02-21T02:38:45;101388.96;;;8.38;58.16
62055;BME280;48653;51.742;-1.256;2023-02-21T02:41:09;101387.08;;;8.67;58.07
62055;BME280;48653;51.742;-1.256;2023-02-21T02:43:31;101387.91;;;8.96;57.75
62055;BME280;48653;51.742;-1.256;2023-02-21T02:45:57;101386.67;;;8.56;58.50
62055;BME280;48653;51.742;-1.256;2023-02-21T02:48:21;101387.89;;;8.36;58.71
62055;BME280;48653;51.742;-1.256;2023-02-21T02:50:46;101376.89;;;7.60;60.58
62055;BME280;48653;51.742;-1.256;2023-02-21T02:53:08;101376.78;;;7.73;60.08
62055;BME280;48653;51.742;-1.256;2023-02-21T02:55:39;101372.26;;;8.45;58.47
62055;BME280;48653;51.742;-1.256;2023-02-21T02:57:59;101368.03;;;7.80;59.90
62055;BME280;48653;51.742;-1.256;2023-02-21T03:00:24;101364.07;;;7.97;59.70
62055;BME280;48653;51.742;-1.256;2023-02-21T03:03:02;101365.36;;;8.28;58.79
62055;BME280;48653;51.742;-1.256;2023-02-21T03:05:24;101363.33;;;7.48;61.22
62055;BME280;48653;51.742;-1.256;2023-02-21T03:07:44;101364.50;;;7.29;61.90
62055;BME280;48653;51.742;-1.256;2023-02-21T03:10:13;101359.55;;;7.98;59.74
62055;BME280;48653;51.742;-1.256;2023-02-21T03:12:36;101360.60;;;7.78;59.52
62055;BME280;48653;51.742;-1.256;2023-02-21T03:14:59;101359.64;;;8.60;57.27
62055;BME280;48653;51.742;-1.256;2023-02-21T03:17:22;101360.54;;;9.16;56.86
62055;BME280;48653;51.742;-1.256;2023-02-21T03:19:46;101353.15;;;8.15;58.96
62055;BME280;48653;51.742;-1.256;2023-02-21T03:22:13;101351.95;;;8.36;58.01
62055;BME280;48653;51.742;-1.256;2023-02-21T03:24:37;101348.91;;;7.98;58.75
62055;BME280;48653;51.742;-1.256;2023-02-21T03:27:03;101350.86;;;8.00;59.05
62055;BME280;48653;51.742;-1.256;2023-02-21T03:29:26;101349.03;;;8.20;58.88
62055;BME280;48653;51.742;-1.256;2023-02-21T03:31:55;101347.97;;;8.18;57.98
62055;BME280;48653;51.742;-1.256;2023-02-21T03:34:15;101344.23;;;8.66;57.85
62055;BME280;48653;51.742;-1.256;2023-02-21T03:36:41;101341.75;;;8.95;57.30
62055;BME280;48653;51.742;-1.256;2023-02-21T03:39:05;101338.72;;;8.76;56.41
62055;BME280;48653;51.742;-1.256;2023-02-21T03:41:31;101340.82;;;9.48;55.61
62055;BME280;48653;51.742;-1.256;2023-02-21T03:43:56;101336.40;;;8.70;57.34
62055;BME280;48653;51.742;-1.256;2023-02-21T03:46:21;101333.86;;;8.90;56.51
62055;BME280;48653;51.742;-1.256;2023-02-21T03:48:46;101334.21;;;8.55;57.20
62055;BME280;48653;51.742;-1.256;2023-02-21T03:51:11;101334.56;;;8.23;57.66
62055;BME280;48653;51.742;-1.256;2023-02-21T03:53:36;101327.21;;;8.68;56.68
62055;BME280;48653;51.742;-1.256;2023-02-21T03:56:01;101323.26;;;8.52;56.96
62055;BME280;48653;51.742;-1.256;2023-02-21T03:58:26;101313.32;;;8.74;57.23
62055;BME280;48653;51.742;-1.256;2023-02-21T04:00:51;101315.96;;;8.41;57.95
62055;BME280;48653;51.742;-1.256;2023-02-21T04:03:17;101317.23;;;8.39;57.77
62055;BME280;48653;51.742;-1.256;2023-02-21T04:05:42;101313.86;;;8.78;57.21
62055;BME280;48653;51.742;-1.256;2023-02-21T04:08:07;101313.60;;;8.53;57.13
62055;BME280;48653;51.742;-1.256;2023-02-21T04:10:32;101312.68;;;7.98;58.18
62055;BME280;48653;51.742;-1.256;2023-02-21T04:12:57;101312.03;;;7.92;57.82
62055;BME280;48653;51.742;-1.256;2023-02-21T04:15:22;101310.41;;;7.49;60.20
62055;BME280;48653;51.742;-1.256;2023-02-21T04:17:47;101311.30;;;7.99;59.11
62055;BME280;48653;51.742;-1.256;2023-02-21T04:20:13;101314.65;;;7.80;58.98
62055;BME280;48653;51.742;-1.256;2023-02-21T04:22:37;101314.04;;;8.64;57.18
62055;BME280;48653;51.742;-1.256;2023-02-21T04:25:03;101315.04;;;8.18;57.24
62055;BME280;48653;51.742;-1.256;2023-02-21T04:27:28;101315.93;;;8.75;57.00
62055;BME280;48653;51.742;-1.256;2023-02-21T04:29:53;101310.44;;;8.65;57.25
62055;BME280;48653;51.742;-1.256;2023-02-21T04:32:18;101310.02;;;8.96;55.92
62055;BME280;48653;51.742;-1.256;2023-02-21T04:34:43;101307.95;;;8.19;57.48
62055;BME280;48653;51.742;-1.256;2023-02-21T04:37:08;101304.05;;;8.88;56.08
62055;BME280;48653;51.742;-1.256;2023-02-21T04:39:33;101304.16;;;8.49;56.32
62055;BME280;48653;51.742;-1.256;2023-02-21T04:41:58;101305.67;;;8.80;55.84
62055;BME280;48653;51.742;-1.256;2023-02-21T04:44:24;101305.56;;;8.38;56.73
62055;BME280;48653;51.742;-1.256;2023-02-21T04:46:48;101307.80;;;8.11;57.30
62055;BME280;48653;51.742;-1.256;2023-02-21T04:49:14;101305.79;;;8.38;57.49
62055;BME280;48653;51.742;-1.256;2023-02-21T04:51:39;101303.51;;;8.12;57.19
62055;BME280;48653;51.742;-1.256;2023-02-21T04:54:04;101301.50;;;8.35;57.50
62055;BME280;48653;51.742;-1.256;2023-02-21T04:56:29;101300.12;;;7.85;57.90
62055;BME280;48653;51.742;-1.256;2023-02-21T04:58:54;101298.24;;;7.83;58.71
62055;BME280;48653;51.742;-1.256;2023-02-21T05:01:20;101293.99;;;8.67;56.92
62055;BME280;48653;51.742;-1.256;2023-02-21T05:03:44;101291.21;;;8.99;56.01
62055;BME280;48653;51.742;-1.256;2023-02-21T05:06:09;101293.50;;;9.00;55.97
62055;BME280;48653;51.742;-1.256;2023-02-21T05:08:35;101294.60;;;9.03;55.71
62055;BME280;48653;51.742;-1.256;2023-02-21T05:11:00;101294.69;;;7.95;57.92
62055;BME280;48653;51.742;-1.256;2023-02-21T05:13:25;101292.64;;;8.32;57.83
62055;BME280;48653;51.742;-1.256;2023-02-21T05:15:50;101292.83;;;7.88;58.62
62055;BME280;48653;51.742;-1.256;2023-02-21T05:18:15;101297.04;;;7.38;59.80
62055;BME280;48653;51.742;-1.256;2023-02-21T05:20:40;101293.28;;;7.52;60.28
62055;BME280;48653;51.742;-1.256;2023-02-21T05:23:05;101290.15;;;8.01;58.03
62055;BME280;48653;51.742;-1.256;2023-02-21T05:25:30;101289.95;;;7.72;59.08
62055;BME280;48653;51.742;-1.256;2023-02-21T05:27:56;101292.24;;;7.30;59.42
62055;BME280;48653;51.742;-1.256;2023-02-21T05:30:22;101291.55;;;7.47;60.34
62055;BME280;48653;51.742;-1.256;2023-02-21T05:32:46;101290.62;;;7.71;58.49
62055;BME280;48653;51.742;-1.256;2023-02-21T05:35:13;101288.88;;;7.92;58.72
62055;BME280;48653;51.742;-1.256;2023-02-21T05:37:36;101288.30;;;7.66;59.05
62055;BME280;48653;51.742;-1.256;2023-02-21T05:40:01;101291.36;;;7.42;59.18
62055;BME280;48653;51.742;-1.256;2023-02-21T05:42:26;101287.66;;;7.30;60.29
62055;BME280;48653;51.742;-1.256;2023-02-21T05:44:51;101287.18;;;7.16;60.80
62055;BME280;48653;51.742;-1.256;2023-02-21T05:47:16;101284.61;;;7.74;59.00
62055;BME280;48653;51.742;-1.256;2023-02-21T05:49:42;101287.06;;;7.34;60.09
62055;BME280;48653;51.742;-1.256;2023-02-21T05:52:09;101287.43;;;7.32;59.90
62055;BME280;48653;51.742;-1.256;2023-02-21T05:54:32;101283.30;;;7.03;60.80
62055;BME280;48653;51.742;-1.256;2023-02-21T05:56:57;101283.38;;;6.98;59.98
62055;BME280;48653;51.742;-1.256;2023-02-21T05:59:22;101276.03;;;7.12;60.70
62055;BME280;48653;51.742;-1.256;2023-02-21T06:01:48;101277.45;;;7.50;59.84
62055;BME280;48653;51.742;-1.256;2023-02-21T06:04:12;101273.72;;;7.11;59.95
62055;BME280;48653;51.742;-1.256;2023-02-21T06:06:38;101274.25;;;7.26;60.40
62055;BME280;48653;51.742;-1.256;2023-02-21T06:09:03;101274.39;;;7.24;60.73
62055;BME280;48653;51.742;-1.256;2023-02-21T06:11:31;101273.73;;;6.74;60.91
62055;BME280;48653;51.742;-1.256;2023-02-21T06:13:54;101271.88;;;7.11;60.68
62055;BME280;48653;51.742;-1.256;2023-02-21T06:16:18;101269.00;;;7.18;61.00
62055;BME280;48653;51.742;-1.256;2023-02-21T06:18:43;101266.68;;;7.09;60.52
62055;BME280;48653;51.742;-1.256;2023-02-21T06:21:08;101266.24;;;7.78;59.15
62055;BME280;48653;51.742;-1.256;2023-02-21T06:23:33;101265.76;;;7.82;59.92
62055;BME280;48653;51.742;-1.256;2023-02-21T06:25:59;101261.43;;;8.07;58.20
62055;BME280;48653;51.742;-1.256;2023-02-21T06:28:27;101256.43;;;8.01;58.08
62055;BME280;48653;51.742;-1.256;2023-02-21T06:30:49;101253.61;;;8.52;57.10
62055;BME280;48653;51.742;-1.256;2023-02-21T06:33:14;101254.02;;;7.85;58.47
62055;BME280;48653;51.742;-1.256;2023-02-21T06:35:39;101252.20;;;8.23;57.76
62055;BME280;48653;51.742;-1.256;2023-02-21T06:38:04;101251.51;;;8.26;57.64
62055;BME280;48653;51.742;-1.256;2023-02-21T06:40:30;101251.31;;;8.65;56.26
62055;BME280;48653;51.742;-1.256;2023-02-21T06:42:56;101251.96;;;8.82;55.87
62055;BME280;48653;51.742;-1.256;2023-02-21T06:45:21;101252.77;;;9.06;56.00
62055;BME280;48653;51.742;-1.256;2023-02-21T06:47:46;101252.05;;;8.43;56.87
62055;BME280;48653;51.742;-1.256;2023-02-21T06:50:11;101250.46;;;8.16;57.97
62055;BME280;48653;51.742;-1.256;2023-02-21T06:52:36;101251.31;;;8.09;58.00
62055;BME280;48653;51.742;-1.256;2023-02-21T06:55:01;101258.19;;;9.03;55.92
62055;BME280;48653;51.742;-1.256;2023-02-21T06:57:26;101254.89;;;8.50;56.50
62055;BME280;48653;51.742;-1.256;2023-02-21T06:59:52;101261.88;;;8.78;56.14
62055;BME280;48653;51.742;-1.256;2023-02-21T07:02:19;101260.75;;;8.66;56.96
62055;BME280;48653;51.742;-1.256;2023-02-21T07:04:43;101263.05;;;8.79;56.16
62055;BME280;48653;51.742;-1.256;2023-02-21T07:07:08;101261.36;;;8.35;57.07
62055;BME280;48653;51.742;-1.256;2023-02-21T07:09:33;101264.94;;;8.53;56.67
62055;BME280;48653;51.742;-1.256;2023-02-21T07:11:58;101270.81;;;8.85;56.14
62055;BME280;48653;51.742;-1.256;2023-02-21T07:14:24;101272.92;;;8.64;55.98
62055;BME280;48653;51.742;-1.256;2023-02-21T07:16:49;101274.41;;;8.84;55.78
62055;BME280;48653;51.742;-1.256;2023-02-21T07:19:14;101267.20;;;9.07;54.97
62055;BME280;48653;51.742;-1.256;2023-02-21T07:21:40;101266.49;;;9.27;54.76
62055;BME280;48653;51.742;-1.256;2023-02-21T07:24:05;101267.42;;;9.05;55.28
62055;BME280;48653;51.742;-1.256;2023-02-21T07:26:30;101267.47;;;9.32;54.83
62055;BME280;48653;51.742;-1.256;2023-02-21T07:28:55;101263.05;;;9.37;55.03
62055;BME280;48653;51.742;-1.256;2023-02-21T07:31:21;101262.68;;;9.21;54.94
62055;BME280;48653;51.742;-1.256;2023-02-21T07:33:46;101265.18;;;8.93;56.12
62055;BME280;48653;51.742;-1.256;2023-02-21T07:36:12;101267.74;;;8.79;56.32
62055;BME280;48653;51.742;-1.256;2023-02-21T07:38:38;101261.50;;;9.12;55.18
62055;BME280;48653;51.742;-1.256;2023-02-21T07:41:03;101267.14;;;8.98;55.98
62055;BME280;48653;51.742;-1.256;2023-02-21T07:43:29;101266.60;;;8.90;55.17
62055;BME280;48653;51.742;-1.256;2023-02-21T07:45:53;101270.19;;;9.19;55.02
62055;BME280;48653;51.742;-1.256;2023-02-21T07:48:18;101271.65;;;8.36;57.16
62055;BME280;48653;51.742;-1.256;2023-02-21T07:50:44;101273.60;;;8.58;56.72
62055;BME280;48653;51.742;-1.256;2023-02-21T07:53:10;101276.17;;;8.98;56.11
62055;BME280;48653;51.742;-1.256;2023-02-21T07:55:34;101270.35;;;9.75;54.97
62055;BME280;48653;51.742;-1.256;2023-02-21T07:57:59;101269.80;;;9.33;54.72
62055;BME280;48653;51.742;-1.256;2023-02-21T08:00:25;101268.09;;;8.94;55.81
62055;BME280;48653;51.742;-1.256;2023-02-21T08:02:51;101266.19;;;9.12;55.46
62055;BME280;48653;51.742;-1.256;2023-02-21T08:05:16;101267.62;;;9.05;56.14
62055;BME280;48653;51.742;-1.256;2023-02-21T08:07:40;101269.04;;;8.81;57.10
62055;BME280;48653;51.742;-1.256;2023-02-21T08:10:06;101272.02;;;8.82;56.09
62055;BME280;48653;51.742;-1.256;2023-02-21T08:12:31;101269.22;;;8.90;56.07
62055;BME280;48653;51.742;-1.256;2023-02-21T08:14:56;101269.23;;;8.89;55.70
62055;BME280;48653;51.742;-1.256;2023-02-21T08:17:21;101264.95;;;9.14;55.75
62055;BME280;48653;51.742;-1.256;2023-02-21T08:19:46;101265.52;;;8.77;55.76
62055;BME280;48653;51.742;-1.256;2023-02-21T08:22:11;101261.79;;;9.47;54.85
62055;BME280;48653;51.742;-1.256;2023-02-21T08:24:36;101265.15;;;9.42;54.43
62055;BME280;48653;51.742;-1.256;2023-02-21T08:27:02;101265.40;;;9.03;55.13
62055;BME280;48653;51.742;-1.256;2023-02-21T08:29:26;101261.69;;;9.42;54.67
62055;BME280;48653;51.742;-1.256;2023-02-21T08:31:51;101261.27;;;9.77;54.06
62055;BME280;48653;51.742;-1.256;2023-02-21T08:34:17;101264.84;;;8.85;55.59
62055;BME280;48653;51.742;-1.256;2023-02-21T08:36:42;101262.07;;;9.56;54.63
62055;BME280;48653;51.742;-1.256;2023-02-21T08:39:08;101263.57;;;9.24;54.97
62055;BME280;48653;51.742;-1.256;2023-02-21T08:41:36;101265.57;;;9.20;54.87
62055;BME280;48653;51.742;-1.256;2023-02-21T08:43:57;101262.90;;;9.53;54.27
62055;BME280;48653;51.742;-1.256;2023-02-21T08:46:22;101262.14;;;9.03;55.40
62055;BME280;48653;51.742;-1.256;2023-02-21T08:48:47;101262.58;;;9.23;55.21
62055;BME280;48653;51.742;-1.256;2023-02-21T08:51:12;101263.48;;;9.46;54.63
62055;BME280;48653;51.742;-1.256;2023-02-21T08:53:38;101259.72;;;9.52;54.18
62055;BME280;48653;51.742;-1.256;2023-02-21T08:56:03;101261.51;;;9.77;53.38
62055;BME280;48653;51.742;-1.256;2023-02-21T08:58:28;101264.99;;;9.70;53.41
62055;BME280;48653;51.742;-1.256;2023-02-21T09:00:53;101270.44;;;10.13;53.52
62055;BME280;48653;51.742;-1.256;2023-02-21T09:03:18;101271.20;;;9.47;53.59
62055;BME280;48653;51.742;-1.256;2023-02-21T09:05:43;101264.32;;;10.10;53.03
62055;BME280;48653;51.742;-1.256;2023-02-21T09:08:08;101267.60;;;9.72;53.20
62055;BME280;48653;51.742;-1.256;2023-02-21T09:10:33;101268.81;;;9.37;53.69
62055;BME280;48653;51.742;-1.256;2023-02-21T09:12:59;101271.10;;;9.40;53.71
62055;BME280;48653;51.742;-1.256;2023-02-21T09:15:24;101268.44;;;9.35;53.73
62055;BME280;48653;51.742;-1.256;2023-02-21T09:17:48;101265.30;;;9.75;53.21
62055;BME280;48653;51.742;-1.256;2023-02-21T09:20:17;101264.25;;;9.85;52.79
62055;BME280;48653;51.742;-1.256;2023-02-21T09:22:42;101254.89;;;9.85;54.36
62055;BME280;48653;51.742;-1.256;2023-02-21T09:25:04;101255.59;;;9.66;54.36
62055;BME280;48653;51.742;-1.256;2023-02-21T09:27:29;101253.44;;;9.49;54.16
62055;BME280;48653;51.742;-1.256;2023-02-21T09:29:54;101254.88;;;9.19;54.87
62055;BME280;48653;51.742;-1.256;2023-02-21T09:32:19;101254.87;;;9.27;55.63
62055;BME280;48653;51.742;-1.256;2023-02-21T09:34:44;101255.79;;;9.53;55.24
62055;BME280;48653;51.742;-1.256;2023-02-21T09:37:09;101254.37;;;9.07;55.02
62055;BME280;48653;51.742;-1.256;2023-02-21T09:39:36;101252.69;;;8.86;55.32
62055;BME280;48653;51.742;-1.256;2023-02-21T09:41:59;101250.77;;;9.51;54.79
62055;BME280;48653;51.742;-1.256;2023-02-21T09:44:26;101252.63;;;9.33;55.16
62055;BME280;48653;51.742;-1.256;2023-02-21T09:46:53;101247.27;;;9.56;54.13
62055;BME280;48653;51.742;-1.256;2023-02-21T09:49:20;101245.73;;;9.83;53.70
62055;BME280;48653;51.742;-1.256;2023-02-21T09:51:40;101244.16;;;9.94;53.57
62055;BME280;48653;51.742;-1.256;2023-02-21T09:54:05;101247.36;;;10.21;52.80
62055;BME280;48653;51.742;-1.256;2023-02-21T09:56:33;101250.06;;;9.20;55.18
62055;BME280;48653;51.742;-1.256;2023-02-21T09:58:56;101251.83;;;9.67;54.55
62055;BME280;48653;51.742;-1.256;2023-02-21T10:01:30;101253.26;;;9.54;54.73
62055;BME280;48653;51.742;-1.256;2023-02-21T10:03:49;101255.64;;;9.24;54.73
62055;BME280;48653;51.742;-1.256;2023-02-21T10:06:19;101253.89;;;9.73;53.74
62055;BME280;48653;51.742;-1.256;2023-02-21T10:08:41;101254.68;;;10.12;53.26
62055;BME280;48653;51.742;-1.256;2023-02-21T10:11:05;101257.83;;;9.13;54.60
62055;BME280;48653;51.742;-1.256;2023-02-21T10:13:35;101256.33;;;9.33;54.64
62055;BME280;48653;51.742;-1.256;2023-02-21T10:15:57;101253.77;;;9.57;53.71
62055;BME280;48653;51.742;-1.256;2023-02-21T10:18:25;101255.69;;;9.92;53.36
62055;BME280;48653;51.742;-1.256;2023-02-21T10:20:44;101257.12;;;9.47;53.41
62055;BME280;48653;51.742;-1.256;2023-02-21T10:23:15;101249.51;;;9.32;53.36
62055;BME280;48653;51.742;-1.256;2023-02-21T10:25:33;101250.26;;;9.52;52.70
62055;BME280;48653;51.742;-1.256;2023-02-21T10:27:58;101247.01;;;9.21;52.94
62055;BME280;48653;51.742;-1.256;2023-02-21T10:30:28;101241.99;;;8.98;53.76
62055;BME280;48653;51.742;-1.256;2023-02-21T10:32:47;101235.32;;;9.93;52.90
62055;BME280;48653;51.742;-1.256;2023-02-21T10:35:12;101230.86;;;10.04;52.41
62055;BME280;48653;51.742;-1.256;2023-02-21T10:37:40;101229.24;;;10.32;51.79
62055;BME280;48653;51.742;-1.256;2023-02-21T10:40:05;101222.13;;;10.29;51.69
62055;BME280;48653;51.742;-1.256;2023-02-21T10:42:33;101222.58;;;10.69;51.54
62055;BME280;48653;51.742;-1.256;2023-02-21T10:44:52;101226.04;;;10.60;51.00
62055;BME280;48653;51.742;-1.256;2023-02-21T10:47:21;101225.60;;;10.32;50.99
62055;BME280;48653;51.742;-1.256;2023-02-21T10:49:47;101223.41;;;10.34;50.59
62055;BME280;48653;51.742;-1.256;2023-02-21T10:52:11;101221.14;;;10.20;50.90
62055;BME280;48653;51.742;-1.256;2023-02-21T10:54:32;101228.55;;;9.75;50.85
62055;BME280;48653;51.742;-1.256;2023-02-21T10:56:59;101229.43;;;9.68;51.86
62055;BME280;48653;51.742;-1.256;2023-02-21T10:59:25;101221.64;;;9.98;51.18
62055;BME280;48653;51.742;-1.256;2023-02-21T11:01:48;101220.10;;;9.55;51.81
62055;BME280;48653;51.742;-1.256;2023-02-21T11:04:25;101217.61;;;9.59;51.78
62055;BME280;48653;51.742;-1.256;2023-02-21T11:06:39;101204.54;;;10.20;51.46
62055;BME280;48653;51.742;-1.256;2023-02-21T11:11:34;101197.10;;;11.00;49.54
62055;BME280;48653;51.742;-1.256;2023-02-21T11:14:11;101203.18;;;10.49;50.51
62055;BME280;48653;51.742;-1.256;2023-02-21T11:16:20;101200.25;;;10.15;51.33
62055;BME280;48653;51.742;-1.256;2023-02-21T11:18:43;101191.41;;;10.09;51.95
62055;BME280;48653;51.742;-1.256;2023-02-21T11:21:11;101184.76;;;10.94;51.10
62055;BME280;48653;51.742;-1.256;2023-02-21T11:23:33;101186.22;;;10.98;50.36
62055;BME280;48653;51.742;-1.256;2023-02-21T11:26:05;101189.67;;;10.97;49.68
62055;BME280;48653;51.742;-1.256;2023-02-21T11:28:24;101181.74;;;10.68;49.95
62055;BME280;48653;51.742;-1.256;2023-02-21T11:33:18;101172.89;;;11.14;49.88
62055;BME280;48653;51.742;-1.256;2023-02-21T11:35:45;101166.27;;;11.57;49.07
62055;BME280;48653;51.742;-1.256;2023-02-21T11:38:06;101169.05;;;10.36;50.45
62055;BME280;48653;51.742;-1.256;2023-02-21T11:40:33;101169.87;;;11.18;50.30
62055;BME280;48653;51.742;-1.256;2023-02-21T11:43:08;101165.09;;;10.72;50.64
62055;BME280;48653;51.742;-1.256;2023-02-21T11:45:23;101162.45;;;11.05;50.03
62055;BME280;48653;51.742;-1.256;2023-02-21T11:47:49;101161.73;;;11.05;49.42
62055;BME280;48653;51.742;-1.256;2023-02-21T11:50:14;101160.59;;;11.04;50.36
62055;BME280;48653;51.742;-1.256;2023-02-21T11:52:39;101160.77;;;11.44;49.49
62055;BME280;48653;51.742;-1.256;2023-02-21T11:55:00;101161.60;;;11.37;49.45
62055;BME280;48653;51.742;-1.256;2023-02-21T11:57:30;101161.37;;;11.70;48.87
62055;BME280;48653;51.742;-1.256;2023-02-21T11:59:55;101157.99;;;11.68;49.69
62055;BME280;48653;51.742;-1.256;2023-02-21T12:02:30;101152.75;;;11.66;49.62
62055;BME280;48653;51.742;-1.256;2023-02-21T12:04:53;101152.63;;;11.77;49.21
62055;BME280;48653;51.742;-1.256;2023-02-21T12:07:13;101148.76;;;11.16;50.70
62055;BME280;48653;51.742;-1.256;2023-02-21T12:09:37;101144.67;;;11.46;49.82
62055;BME280;48653;51.742;-1.256;2023-02-21T12:12:04;101139.34;;;11.31;49.96
62055;BME280;48653;51.742;-1.256;2023-02-21T12:14:33;101130.46;;;11.00;50.81
62055;BME280;48653;51.742;-1.256;2023-02-21T12:16:55;101130.69;;;11.59;50.39
62055;BME280;48653;51.742;-1.256;2023-02-21T12:19:28;101132.83;;;11.04;50.02
62055;BME280;48653;51.742;-1.256;2023-02-21T12:21:52;101131.72;;;11.34;50.39
62055;BME280;48653;51.742;-1.256;2023-02-21T12:24:13;101127.11;;;10.21;52.14
62055;BME280;48653;51.742;-1.256;2023-02-21T12:29:06;101118.18;;;10.85;51.01
62055;BME280;48653;51.742;-1.256;2023-02-21T12:31:29;101113.73;;;11.44;50.58
62055;BME280;48653;51.742;-1.256;2023-02-21T12:33:52;101110.00;;;11.23;50.57
62055;BME280;48653;51.742;-1.256;2023-02-21T12:36:19;101108.21;;;11.15;50.38
62055;BME280;48653;51.742;-1.256;2023-02-21T12:38:41;101101.90;;;10.72;51.08
62055;BME280;48653;51.742;-1.256;2023-02-21T12:41:10;101102.06;;;11.09;50.39
62055;BME280;48653;51.742;-1.256;2023-02-21T12:43:37;101093.75;;;11.44;49.84
62055;BME280;48653;51.742;-1.256;2023-02-21T12:45:58;101093.55;;;11.20;50.22
62055;BME280;48653;51.742;-1.256;2023-02-21T12:48:20;101088.60;;;11.46;49.76
62055;BME280;48653;51.742;-1.256;2023-02-21T12:50:45;101087.06;;;11.84;49.21